createdAt,value
2022-08-18T00:03:56.937Z,17.70
2022-08-18T00:08:55.586Z,17.80
2022-08-18T00:14:01.519Z,18.00
2022-08-18T00:19:09.376Z,17.80
2022-08-18T00:24:13.881Z,17.60
2022-08-18T00:29:19.759Z,17.50
2022-08-18T00:34:25.177Z,17.60
2022-08-18T00:39:34.297Z,17.50
2022-08-18T00:44:39.479Z,17.60
2022-08-18T00:49:48.544Z,17.40
2022-08-18T00:54:55.982Z,17.50
2022-08-18T01:00:06.259Z,17.30
2022-08-18T01:05:18.201Z,17.70
2022-08-18T01:10:24.875Z,17.40
2022-08-18T01:15:30.787Z,17.40
2022-08-18T01:20:57.135Z,17.00
2022-08-18T01:26:04.746Z,16.90
2022-08-18T01:31:13.610Z,16.80
2022-08-18T01:36:21.770Z,16.70
2022-08-18T01:41:30.858Z,16.80
2022-08-18T01:46:36.213Z,16.80
2022-08-18T01:51:43.034Z,16.70
2022-08-18T01:56:49.238Z,16.80
2022-08-18T02:01:55.771Z,16.70
2022-08-18T02:07:04.235Z,16.70
2022-08-18T02:12:10.674Z,16.80
2022-08-18T02:17:16.131Z,16.90
2022-08-18T02:22:22.642Z,16.60
2022-08-18T02:27:28.531Z,16.90
2022-08-18T02:32:34.488Z,17.00
2022-08-18T02:37:42.241Z,16.90
2022-08-18T02:42:48.397Z,17.00
2022-08-18T02:47:55.280Z,17.00
2022-08-18T02:53:03.016Z,16.80
2022-08-18T02:58:08.865Z,16.50
2022-08-18T03:03:14.678Z,16.40
2022-08-18T03:08:22.174Z,16.60
2022-08-18T03:13:27.183Z,16.60
2022-08-18T03:18:32.376Z,16.50
2022-08-18T03:23:39.456Z,16.50
2022-08-18T03:28:47.203Z,16.40
2022-08-18T03:33:54.145Z,16.50
2022-08-18T03:39:00.375Z,16.40
2022-08-18T03:44:06.601Z,16.40
2022-08-18T03:49:12.813Z,16.60
2022-08-18T03:54:19.356Z,16.70
2022-08-18T03:59:27.661Z,16.60
2022-08-18T04:04:32.557Z,16.30
2022-08-18T04:09:39.641Z,16.40
2022-08-18T04:14:48.634Z,16.40
2022-08-18T04:19:57.467Z,16.50
2022-08-18T04:25:02.900Z,16.60
2022-08-18T04:30:09.210Z,16.80
2022-08-18T04:35:15.062Z,16.80
2022-08-18T04:40:25.058Z,16.90
2022-08-18T04:45:27.471Z,16.80
2022-08-18T04:50:32.717Z,17.00
2022-08-18T04:55:39.099Z,17.10
2022-08-18T05:00:45.533Z,17.00
2022-08-18T05:05:50.707Z,17.30
2022-08-18T05:11:04.095Z,17.50
2022-08-18T05:16:11.682Z,17.70
2022-08-18T05:21:16.287Z,17.80
2022-08-18T05:26:21.460Z,18.10
2022-08-18T05:31:28.497Z,18.30
2022-08-18T05:36:56.482Z,18.10
2022-08-18T05:42:14.136Z,18.40
2022-08-18T05:47:28.714Z,18.70
2022-08-18T05:52:36.955Z,19.20
2022-08-18T05:57:50.375Z,19.80
2022-08-18T06:03:04.746Z,20.00
2022-08-18T06:08:14.150Z,20.40
2022-08-18T06:13:20.472Z,20.70
2022-08-18T06:18:52.800Z,20.90
2022-08-18T06:24:19.454Z,21.20
2022-08-18T06:29:52.994Z,21.60
2022-08-18T06:35:04.092Z,21.90
2022-08-18T06:40:10.995Z,22.30
2022-08-18T06:45:18.911Z,22.70
2022-08-18T06:50:33.130Z,23.20
2022-08-18T06:55:47.382Z,23.70
2022-08-18T07:00:56.671Z,24.10
2022-08-18T07:06:14.528Z,24.70
2022-08-18T07:11:33.549Z,24.80
2022-08-18T07:16:57.860Z,24.90
2022-08-18T07:21:48.316Z,25.10
2022-08-18T07:27:15.729Z,25.30
2022-08-18T07:32:23.358Z,25.90
2022-08-18T07:37:34.594Z,26.30
2022-08-18T07:43:01.909Z,26.80
2022-08-18T07:48:37.577Z,27.50
2022-08-18T07:53:56.232Z,28.00
2022-08-18T07:59:07.460Z,28.40
2022-08-18T08:04:25.266Z,28.60
2022-08-18T08:09:51.919Z,29.10
2022-08-18T08:15:17.015Z,29.00
2022-08-18T08:20:33.764Z,29.40
2022-08-18T08:25:54.135Z,29.30
2022-08-18T08:31:37.638Z,29.40
2022-08-18T08:36:30.412Z,29.40
2022-08-18T08:42:00.400Z,29.60
2022-08-18T08:47:08.259Z,29.60
2022-08-18T08:52:20.878Z,29.80
2022-08-18T08:57:32.360Z,29.50
2022-08-18T09:02:48.826Z,29.60
2022-08-18T09:08:17.660Z,29.00
2022-08-18T09:13:29.391Z,29.60
2022-08-18T09:18:59.447Z,30.00
2022-08-18T09:24:11.021Z,29.90
2022-08-18T09:29:26.622Z,30.10
2022-08-18T09:34:51.819Z,30.30
2022-08-18T09:40:44.483Z,30.50
2022-08-18T09:45:36.734Z,30.50
2022-08-18T09:51:18.560Z,30.80
2022-08-18T09:56:54.506Z,30.90
2022-08-18T10:02:06.166Z,30.80
2022-08-18T10:07:24.917Z,30.80
2022-08-18T10:12:52.942Z,31.10
2022-08-18T10:18:20.452Z,30.70
2022-08-18T10:23:49.529Z,30.90
2022-08-18T10:28:58.810Z,31.10
2022-08-18T10:34:24.696Z,31.20
2022-08-18T10:39:22.648Z,31.20
2022-08-18T10:44:31.046Z,31.10
2022-08-18T10:49:38.338Z,31.30
2022-08-18T10:54:54.481Z,31.70
2022-08-18T11:00:13.255Z,32.10
2022-08-18T11:05:21.452Z,32.10
2022-08-18T11:11:06.463Z,31.90
2022-08-18T11:16:13.219Z,32.00
2022-08-18T11:21:42.633Z,32.10
2022-08-18T11:27:00.019Z,32.10
2022-08-18T11:32:11.939Z,32.20
2022-08-18T11:37:51.638Z,32.20
2022-08-18T11:42:57.768Z,32.30
2022-08-18T11:48:21.064Z,32.40
2022-08-18T11:53:35.314Z,32.70
2022-08-18T11:58:50.520Z,32.90
2022-08-18T12:03:57.411Z,31.00
2022-08-18T12:09:54.050Z,31.20
2022-08-18T12:14:31.724Z,31.50
2022-08-18T12:19:35.925Z,32.10
2022-08-18T12:24:43.152Z,30.80
2022-08-18T12:29:50.875Z,30.10
2022-08-18T12:34:56.599Z,29.70
2022-08-18T12:40:02.229Z,29.60
2022-08-18T12:45:08.793Z,29.70
2022-08-18T12:50:13.811Z,29.90
2022-08-18T12:55:21.355Z,30.00
2022-08-18T13:00:28.808Z,30.20
2022-08-18T13:05:34.901Z,31.50
2022-08-18T13:10:46.641Z,31.80
2022-08-18T13:15:58.004Z,31.30
2022-08-18T13:21:00.314Z,31.90
2022-08-18T13:26:08.758Z,31.40
2022-08-18T13:31:16.463Z,31.30
2022-08-18T13:36:22.531Z,31.60
2022-08-18T13:46:33.257Z,31.90
2022-08-18T13:51:38.931Z,31.10
2022-08-18T13:56:51.659Z,31.40
2022-08-18T14:01:53.619Z,31.10
2022-08-18T14:07:01.211Z,31.60
2022-08-18T14:12:15.363Z,31.70
2022-08-18T14:17:16.976Z,31.50
2022-08-18T14:22:41.368Z,31.30
2022-08-18T14:27:56.219Z,31.50
2022-08-18T14:32:55.185Z,31.60
2022-08-18T14:38:02.968Z,31.00
2022-08-18T14:43:10.106Z,30.80
2022-08-18T14:48:18.612Z,30.10
2022-08-18T14:53:26.606Z,29.90
2022-08-18T14:58:33.370Z,29.80
2022-08-18T15:03:40.199Z,30.20
2022-08-18T15:08:46.881Z,30.10
2022-08-18T15:13:55.060Z,30.20
2022-08-18T15:19:01.896Z,29.70
2022-08-18T15:24:26.834Z,29.30
2022-08-18T15:29:32.329Z,29.10
2022-08-18T15:34:46.466Z,29.00
2022-08-18T15:39:45.850Z,28.90
2022-08-18T15:44:53.792Z,29.20
2022-08-18T15:49:59.507Z,29.50
2022-08-18T15:55:08.244Z,29.50
2022-08-18T16:00:17.893Z,29.50
2022-08-18T16:05:24.291Z,29.30
2022-08-18T16:10:33.441Z,29.10
2022-08-18T16:15:41.823Z,28.90
2022-08-18T16:20:47.646Z,28.70
2022-08-18T16:25:56.006Z,28.60
2022-08-18T16:31:02.779Z,28.40
2022-08-18T16:36:10.866Z,28.40
2022-08-18T16:41:17.465Z,28.40
2022-08-18T16:46:26.461Z,28.40
2022-08-18T16:51:31.860Z,28.20
2022-08-18T16:56:38.519Z,28.20
2022-08-18T17:02:02.139Z,28.00
2022-08-18T17:07:08.402Z,27.80
2022-08-18T17:12:14.358Z,27.80
2022-08-18T17:17:20.255Z,27.60
2022-08-18T17:22:26.173Z,27.50
2022-08-18T17:27:37.683Z,27.40
2022-08-18T17:32:47.143Z,27.30
2022-08-18T17:37:57.968Z,27.20
2022-08-18T17:43:03.865Z,27.00
2022-08-18T17:48:21.031Z,26.70
2022-08-18T17:53:26.560Z,26.70
2022-08-18T17:58:35.515Z,26.20
2022-08-18T18:03:41.031Z,26.00
2022-08-18T18:09:04.201Z,26.00
2022-08-18T18:14:28.616Z,25.90
2022-08-18T18:19:36.735Z,25.80
2022-08-18T18:24:44.992Z,25.60
2022-08-18T18:30:03.984Z,25.50
2022-08-18T18:35:27.583Z,25.30
2022-08-18T18:40:35.341Z,25.30
2022-08-18T18:45:41.626Z,25.20
2022-08-18T18:50:55.694Z,25.10
2022-08-18T18:56:19.494Z,24.80
2022-08-18T19:01:31.697Z,24.60
2022-08-18T19:06:48.557Z,24.70
2022-08-18T19:12:12.204Z,24.70
2022-08-18T19:17:26.033Z,24.70
2022-08-18T19:22:49.704Z,24.80
2022-08-18T19:28:04.262Z,24.80
2022-08-18T19:33:14.641Z,24.70
2022-08-18T19:38:28.303Z,24.40
2022-08-18T19:43:56.258Z,24.00
2022-08-18T19:49:16.779Z,23.60
2022-08-18T19:54:33.916Z,23.70
2022-08-18T19:59:48.570Z,23.70
2022-08-18T20:05:11.445Z,23.80
2022-08-18T20:10:41.835Z,24.20
2022-08-18T20:16:10.935Z,24.30
2022-08-18T20:21:22.571Z,24.00
2022-08-18T20:26:40.335Z,23.90
2022-08-18T20:31:51.870Z,23.80
2022-08-18T20:36:59.101Z,23.70
2022-08-18T20:42:07.931Z,23.50
2022-08-18T20:47:47.603Z,23.50
2022-08-18T20:53:17.756Z,23.50
2022-08-18T20:58:28.217Z,23.60
2022-08-18T21:03:42.100Z,23.50
2022-08-18T21:08:53.651Z,23.60
2022-08-18T21:14:04.280Z,23.80
2022-08-18T21:19:14.906Z,23.70
2022-08-18T21:24:29.022Z,23.80
2022-08-18T21:29:46.976Z,23.90
2022-08-18T21:34:45.349Z,23.70
2022-08-18T21:39:56.520Z,23.50
2022-08-18T21:45:02.506Z,23.40
2022-08-18T21:50:14.809Z,23.50
2022-08-18T21:55:31.753Z,23.60
2022-08-18T22:00:42.820Z,23.50
2022-08-18T22:06:02.370Z,23.60
2022-08-18T22:11:59.840Z,23.80
2022-08-18T22:16:42.075Z,23.70
2022-08-18T22:22:02.077Z,23.60
2022-08-18T22:27:12.403Z,23.60
2022-08-18T22:32:21.632Z,23.50
2022-08-18T22:37:30.024Z,23.40
2022-08-18T22:42:35.964Z,23.50
2022-08-18T22:47:44.837Z,23.60
2022-08-18T22:52:50.708Z,23.70
2022-08-18T22:57:57.181Z,23.70
2022-08-18T23:03:03.273Z,23.60
2022-08-18T23:08:08.490Z,23.60
2022-08-18T23:13:14.124Z,23.50
2022-08-18T23:18:21.932Z,23.40
2022-08-18T23:23:29.048Z,23.40
2022-08-18T23:28:34.878Z,23.40
2022-08-18T23:33:41.787Z,23.40
2022-08-18T23:38:47.701Z,23.50
2022-08-18T23:43:53.543Z,23.60
2022-08-18T23:49:01.572Z,23.50
2022-08-18T23:54:10.259Z,23.40
2022-08-18T23:59:18.056Z,23.40
